createdAt,value
2023-07-03T00:01:55.511Z,11.07
2023-07-03T00:04:46.996Z,11.00
2023-07-03T00:07:34.450Z,10.43
2023-07-03T00:10:24.677Z,11.07
2023-07-03T00:13:11.916Z,10.40
2023-07-03T00:16:00.631Z,11.30
2023-07-03T00:18:49.271Z,10.47
2023-07-03T00:21:44.667Z,10.20
2023-07-03T00:24:32.737Z,11.07
2023-07-03T00:27:19.839Z,11.30
2023-07-03T00:30:07.424Z,10.90
2023-07-03T00:32:54.536Z,9.23
2023-07-03T00:35:42.011Z,11.57
2023-07-03T00:38:29.524Z,10.90
2023-07-03T00:41:16.629Z,10.20
2023-07-03T00:44:04.027Z,10.50
2023-07-03T00:46:52.160Z,11.57
2023-07-03T00:49:39.222Z,11.63
2023-07-03T00:52:26.670Z,11.53
2023-07-03T00:55:14.847Z,11.73
2023-07-03T00:58:01.947Z,11.33
2023-07-03T01:00:56.921Z,10.47
2023-07-03T01:04:06.060Z,11.40
2023-07-03T01:07:01.478Z,11.97
2023-07-03T01:09:53.712Z,12.43
2023-07-03T01:12:44.009Z,12.30
2023-07-03T01:15:37.845Z,11.17
2023-07-03T01:18:25.428Z,11.27
2023-07-03T01:21:20.848Z,11.13
2023-07-03T01:24:32.076Z,11.50
2023-07-03T01:27:22.786Z,10.77
2023-07-03T01:30:14.362Z,11.43
2023-07-03T01:33:04.492Z,10.70
2023-07-03T01:35:54.130Z,11.40
2023-07-03T01:38:44.295Z,12.10
2023-07-03T01:41:32.283Z,11.60
2023-07-03T01:44:19.286Z,11.77
2023-07-03T01:47:08.984Z,10.30
2023-07-03T01:49:56.285Z,11.43
2023-07-03T01:52:55.548Z,10.97
2023-07-03T01:56:11.966Z,11.70
2023-07-03T01:59:09.469Z,11.23
2023-07-03T02:02:13.912Z,11.57
2023-07-03T02:05:12.941Z,11.67
2023-07-03T02:08:02.688Z,11.13
2023-07-03T02:10:50.360Z,11.70
2023-07-03T02:13:37.398Z,11.73
2023-07-03T02:16:25.180Z,11.70
2023-07-03T02:19:15.005Z,12.10
2023-07-03T02:22:02.412Z,10.70
2023-07-03T02:24:49.430Z,10.77
2023-07-03T02:27:36.904Z,11.17
2023-07-03T02:30:24.061Z,10.70
2023-07-03T02:33:12.228Z,10.73
2023-07-03T02:36:04.124Z,11.83
2023-07-03T02:38:51.145Z,11.20
2023-07-03T02:41:38.213Z,12.00
2023-07-03T02:44:25.261Z,11.77
2023-07-03T02:47:12.457Z,11.77
2023-07-03T02:49:59.730Z,12.00
2023-07-03T02:52:46.913Z,11.57
2023-07-03T02:55:34.147Z,12.00
2023-07-03T02:58:21.522Z,12.57
2023-07-03T03:01:08.912Z,11.47
2023-07-03T03:03:56.698Z,12.47
2023-07-03T03:06:45.020Z,11.50
2023-07-03T03:09:32.667Z,12.20
2023-07-03T03:12:20.106Z,12.50
2023-07-03T03:15:07.959Z,11.60
2023-07-03T03:17:55.254Z,11.83
2023-07-03T03:20:43.910Z,12.53
2023-07-03T03:23:31.426Z,12.07
2023-07-03T03:26:18.518Z,12.00
2023-07-03T03:29:05.553Z,12.33
2023-07-03T03:31:52.627Z,13.47
2023-07-03T03:34:39.650Z,13.13
2023-07-03T03:37:26.880Z,13.27
2023-07-03T03:40:15.322Z,12.83
2023-07-03T03:43:02.379Z,12.53
2023-07-03T03:45:57.834Z,12.73
2023-07-03T03:48:46.349Z,11.47
2023-07-03T03:51:33.528Z,11.73
2023-07-03T03:54:21.423Z,11.03
2023-07-03T03:57:08.508Z,12.30
2023-07-03T03:59:56.532Z,12.07
2023-07-03T04:02:44.350Z,12.40
2023-07-03T04:05:31.622Z,11.83
2023-07-03T04:08:18.767Z,12.00
2023-07-03T04:11:05.838Z,12.23
2023-07-03T04:13:53.041Z,12.50
2023-07-03T04:16:40.307Z,12.63
2023-07-03T04:19:29.774Z,11.13
2023-07-03T04:22:16.794Z,11.87
2023-07-03T04:25:03.960Z,11.87
2023-07-03T04:27:51.006Z,11.40
2023-07-03T04:30:38.334Z,11.87
2023-07-03T04:33:25.377Z,12.23
2023-07-03T04:36:13.768Z,12.20
2023-07-03T04:39:01.999Z,11.53
2023-07-03T04:41:49.574Z,12.27
2023-07-03T04:44:36.647Z,13.13
2023-07-03T04:47:23.772Z,12.07
2023-07-03T04:50:16.661Z,11.93
2023-07-03T04:53:04.836Z,11.93
2023-07-03T04:55:52.327Z,11.80
2023-07-03T04:58:40.159Z,11.70
2023-07-03T05:01:27.249Z,12.53
2023-07-03T05:04:14.427Z,12.63
2023-07-03T05:07:02.593Z,12.10
2023-07-03T05:09:49.607Z,11.17
2023-07-03T05:12:37.244Z,11.90
2023-07-03T05:15:26.068Z,12.30
2023-07-03T05:18:13.132Z,11.80
2023-07-03T05:21:00.229Z,11.97
2023-07-03T05:23:47.408Z,12.50
2023-07-03T05:26:34.692Z,11.10
2023-07-03T05:29:22.241Z,11.33
2023-07-03T05:32:09.417Z,11.77
2023-07-03T05:34:56.526Z,11.57
2023-07-03T05:37:43.562Z,10.93
2023-07-03T05:40:30.913Z,10.73
2023-07-03T05:43:18.748Z,11.87
2023-07-03T05:46:05.814Z,11.40
2023-07-03T05:48:52.826Z,12.43
2023-07-03T05:51:39.971Z,10.90
2023-07-03T05:54:27.115Z,11.20
2023-07-03T05:57:15.097Z,11.73
2023-07-03T06:00:02.224Z,10.97
2023-07-03T06:03:00.749Z,11.70
2023-07-03T06:05:49.188Z,11.60
2023-07-03T06:08:36.658Z,11.60
2023-07-03T06:11:23.652Z,10.93
2023-07-03T06:14:18.630Z,11.13
2023-07-03T06:17:05.920Z,10.57
2023-07-03T06:19:53.354Z,11.07
2023-07-03T06:22:42.505Z,10.70
2023-07-03T06:25:29.641Z,10.60
2023-07-03T06:28:16.661Z,10.67
2023-07-03T06:31:04.083Z,11.00
2023-07-03T06:33:51.190Z,10.90
2023-07-03T06:36:38.385Z,10.63
2023-07-03T06:39:25.381Z,10.80
2023-07-03T06:42:12.422Z,10.37
2023-07-03T06:45:04.896Z,11.17
2023-07-03T06:47:52.823Z,10.80
2023-07-03T06:50:40.019Z,10.10
2023-07-03T06:53:27.027Z,10.07
2023-07-03T06:56:14.142Z,10.53
2023-07-03T06:59:01.145Z,10.37
2023-07-03T07:01:48.318Z,10.60
2023-07-03T07:04:35.400Z,9.83
2023-07-03T07:07:22.505Z,9.37
2023-07-03T07:10:09.696Z,9.63
2023-07-03T07:12:56.734Z,8.80
2023-07-03T07:15:43.786Z,9.97
2023-07-03T07:18:30.893Z,8.97
2023-07-03T07:21:18.493Z,10.00
2023-07-03T07:24:23.406Z,9.30
2023-07-03T07:27:10.449Z,11.67
2023-07-03T07:29:57.483Z,9.93
2023-07-03T07:32:48.139Z,9.40
2023-07-03T07:35:36.817Z,8.97
2023-07-03T07:38:23.897Z,8.60
2023-07-03T07:41:12.305Z,8.50
2023-07-03T07:43:59.975Z,8.80
2023-07-03T07:46:47.609Z,8.80
2023-07-03T07:49:35.079Z,8.73
2023-07-03T07:52:25.032Z,8.17
2023-07-03T07:55:12.343Z,8.97
2023-07-03T07:57:59.656Z,8.90
2023-07-03T08:00:52.447Z,9.13
2023-07-03T08:03:41.115Z,8.77
2023-07-03T08:06:28.756Z,8.33
2023-07-03T08:09:16.129Z,8.03
2023-07-03T08:12:04.089Z,8.47
2023-07-03T08:14:51.206Z,8.50
2023-07-03T08:17:38.546Z,8.57
2023-07-03T08:20:26.116Z,8.90
2023-07-03T08:23:13.430Z,8.17
2023-07-03T08:26:02.303Z,8.20
2023-07-03T08:28:49.673Z,9.03
2023-07-03T08:31:36.710Z,9.33
2023-07-03T08:34:23.924Z,8.57
2023-07-03T08:37:11.183Z,8.47
2023-07-03T08:39:58.329Z,7.90
2023-07-03T08:42:54.473Z,7.17
2023-07-03T08:45:44.953Z,8.13
2023-07-03T08:48:36.227Z,7.10
2023-07-03T08:51:29.128Z,8.27
2023-07-03T08:54:24.001Z,8.23
2023-07-03T08:57:12.699Z,8.10
2023-07-03T08:59:59.798Z,8.60
2023-07-03T09:02:58.886Z,8.27
2023-07-03T09:06:18.250Z,8.10
2023-07-03T09:09:26.908Z,7.97
2023-07-03T09:12:32.937Z,7.57
2023-07-03T09:15:39.036Z,7.30
2023-07-03T09:18:32.070Z,7.37
2023-07-03T09:21:20.352Z,8.23
2023-07-03T09:24:27.021Z,7.73
2023-07-03T09:27:21.113Z,8.17
2023-07-03T09:30:10.411Z,7.63
2023-07-03T09:32:58.596Z,8.33
2023-07-03T09:35:45.735Z,7.97
2023-07-03T09:38:36.178Z,8.40
2023-07-03T09:41:31.246Z,7.90
2023-07-03T09:44:20.314Z,7.43
2023-07-03T09:47:19.994Z,8.63
2023-07-03T09:50:10.465Z,8.40
2023-07-03T09:53:08.310Z,7.70
2023-07-03T09:55:58.926Z,7.30
2023-07-03T09:58:49.773Z,7.27
2023-07-03T10:07:23.590Z,6.87
2023-07-03T10:13:29.517Z,6.73
2023-07-03T10:16:17.227Z,7.07
2023-07-03T10:19:04.592Z,6.10
2023-07-03T10:21:53.674Z,6.30
2023-07-03T10:24:43.821Z,5.93
2023-07-03T10:27:33.903Z,6.20
2023-07-03T10:30:22.090Z,6.17
2023-07-03T10:33:15.593Z,6.10
2023-07-03T10:36:07.816Z,6.70
2023-07-03T10:39:12.926Z,6.30
2023-07-03T10:42:06.690Z,6.50
2023-07-03T10:45:02.030Z,6.43
2023-07-03T10:48:03.496Z,6.33
2023-07-03T10:51:04.216Z,6.00
2023-07-03T10:54:05.009Z,6.57
2023-07-03T10:56:56.422Z,5.80
2023-07-03T10:59:48.430Z,5.97
2023-07-03T11:03:07.687Z,6.40
2023-07-03T11:06:05.870Z,5.70
2023-07-03T11:09:01.237Z,6.63
2023-07-03T11:12:30.294Z,6.13
2023-07-03T11:15:28.905Z,6.27
2023-07-03T11:24:50.216Z,6.07
2023-07-03T11:27:59.017Z,5.83
2023-07-03T11:30:47.924Z,5.60
2023-07-03T11:36:49.652Z,6.23
2023-07-03T11:39:51.035Z,6.13
2023-07-03T11:45:28.859Z,6.20
2023-07-03T11:48:26.644Z,5.90
2023-07-03T11:51:35.276Z,5.50
2023-07-03T11:54:25.367Z,5.60
2023-07-03T11:57:30.639Z,5.73
2023-07-03T12:00:26.898Z,5.43
2023-07-03T12:03:15.544Z,5.70
2023-07-03T12:06:02.690Z,5.13
2023-07-03T12:08:49.791Z,5.00
2023-07-03T12:12:04.308Z,5.40
2023-07-03T12:14:52.701Z,5.27
2023-07-03T12:17:39.902Z,5.27
2023-07-03T12:20:26.928Z,5.23
2023-07-03T12:23:31.332Z,4.77
2023-07-03T12:26:19.063Z,5.23
2023-07-03T12:29:06.122Z,4.83
2023-07-03T12:32:08.868Z,4.93
2023-07-03T12:35:16.490Z,5.07
2023-07-03T12:38:10.420Z,4.70
2023-07-03T12:40:57.611Z,5.30
2023-07-03T12:43:46.790Z,5.23
2023-07-03T12:46:38.907Z,5.00
2023-07-03T12:49:26.069Z,5.07
2023-07-03T12:52:15.537Z,5.23
2023-07-03T12:57:55.169Z,5.57
2023-07-03T13:00:42.214Z,5.63
2023-07-03T13:03:29.477Z,4.47
2023-07-03T13:06:19.949Z,5.07
2023-07-03T13:09:14.033Z,4.90
2023-07-03T13:12:01.233Z,4.93
2023-07-03T13:15:29.860Z,5.30
2023-07-03T13:18:20.939Z,5.17
2023-07-03T13:21:08.087Z,6.00
2023-07-03T13:23:55.084Z,5.40
2023-07-03T13:26:46.461Z,4.90
2023-07-03T13:29:35.027Z,5.00
2023-07-03T13:32:24.214Z,5.17
2023-07-03T13:35:11.297Z,4.93
2023-07-03T13:38:27.528Z,4.90
2023-07-03T13:41:14.577Z,5.27
2023-07-03T13:44:03.734Z,4.70
2023-07-03T13:46:52.870Z,4.53
2023-07-03T13:49:42.156Z,4.60
2023-07-03T13:52:29.174Z,4.90
2023-07-03T13:55:16.276Z,5.60
2023-07-03T13:58:03.444Z,5.30
2023-07-03T14:00:50.569Z,5.20
2023-07-03T14:03:38.007Z,5.50
2023-07-03T14:06:25.315Z,4.50
2023-07-03T14:09:12.330Z,5.43
2023-07-03T14:11:59.451Z,4.97
2023-07-03T14:14:46.575Z,5.13
2023-07-03T14:17:33.940Z,5.00
2023-07-03T14:20:21.658Z,5.20
2023-07-03T14:23:08.980Z,5.03
2023-07-03T14:25:56.918Z,5.70
2023-07-03T14:28:45.420Z,5.43
2023-07-03T14:31:32.702Z,5.10
2023-07-03T14:34:19.692Z,5.57
2023-07-03T14:37:06.989Z,5.40
2023-07-03T14:39:54.051Z,5.30
2023-07-03T14:42:41.109Z,5.60
2023-07-03T14:45:28.080Z,5.13
2023-07-03T14:48:15.179Z,5.57
2023-07-03T14:51:02.808Z,5.30
2023-07-03T14:53:49.858Z,5.87
2023-07-03T14:56:36.860Z,5.20
2023-07-03T14:59:24.061Z,5.53
2023-07-03T15:02:11.395Z,5.33
2023-07-03T15:04:58.450Z,6.03
2023-07-03T15:07:46.633Z,5.10
2023-07-03T15:10:37.448Z,5.63
2023-07-03T15:13:24.529Z,5.03
2023-07-03T15:16:11.614Z,5.43
2023-07-03T15:19:08.691Z,5.20
2023-07-03T15:21:55.953Z,6.03
2023-07-03T15:24:43.958Z,5.20
2023-07-03T15:27:31.850Z,5.43
2023-07-03T15:30:19.015Z,5.87
2023-07-03T15:33:06.126Z,5.20
2023-07-03T15:35:57.324Z,5.27
2023-07-03T15:38:44.609Z,5.60
2023-07-03T15:41:31.645Z,5.73
2023-07-03T15:44:19.578Z,5.40
2023-07-03T15:47:08.623Z,5.53
2023-07-03T15:49:57.209Z,5.20
2023-07-03T15:52:44.227Z,5.07
2023-07-03T15:55:31.258Z,5.20
2023-07-03T15:58:18.245Z,4.90
2023-07-03T16:01:19.800Z,5.03
2023-07-03T16:04:07.006Z,4.63
2023-07-03T16:06:54.097Z,4.63
2023-07-03T16:09:41.112Z,4.63
2023-07-03T16:12:28.115Z,5.00
2023-07-03T16:15:15.112Z,4.77
2023-07-03T16:18:02.212Z,4.43
2023-07-03T16:20:56.795Z,4.33
2023-07-03T16:23:44.016Z,5.30
2023-07-03T16:26:31.912Z,4.17
2023-07-03T16:29:19.010Z,4.70
2023-07-03T16:32:06.163Z,4.50
2023-07-03T16:34:53.187Z,4.17
2023-07-03T16:37:40.212Z,4.33
2023-07-03T16:40:28.830Z,4.70
2023-07-03T16:43:15.932Z,4.43
2023-07-03T16:46:05.156Z,4.83
2023-07-03T16:48:54.285Z,4.30
2023-07-03T16:51:41.337Z,4.10
2023-07-03T16:54:28.334Z,4.23
2023-07-03T16:57:15.360Z,4.30
2023-07-03T17:00:02.410Z,4.33
2023-07-03T17:02:51.961Z,4.53
2023-07-03T17:05:41.827Z,4.40
2023-07-03T17:08:30.362Z,4.03
2023-07-03T17:11:17.918Z,4.03
2023-07-03T17:14:05.464Z,4.77
2023-07-03T17:16:52.613Z,4.60
2023-07-03T17:19:39.672Z,4.00
2023-07-03T17:22:26.737Z,3.47
2023-07-03T17:25:13.904Z,3.40
2023-07-03T17:28:01.903Z,3.73
2023-07-03T17:30:49.732Z,3.83
2023-07-03T17:33:37.615Z,3.67
2023-07-03T17:36:25.172Z,3.40
2023-07-03T17:39:12.242Z,3.80
2023-07-03T17:41:59.230Z,3.27
2023-07-03T17:44:46.253Z,3.43
2023-07-03T17:47:33.294Z,3.00
2023-07-03T17:50:20.661Z,3.47
2023-07-03T17:53:08.108Z,3.40
2023-07-03T17:55:55.401Z,3.37
2023-07-03T17:58:44.426Z,2.97
2023-07-03T18:01:31.582Z,3.60
2023-07-03T18:04:18.681Z,3.27
2023-07-03T18:07:06.694Z,3.20
2023-07-03T18:09:53.898Z,3.37
2023-07-03T18:12:41.067Z,3.10
2023-07-03T18:15:43.413Z,3.00
2023-07-03T18:18:35.955Z,2.63
2023-07-03T18:21:22.984Z,2.90
2023-07-03T18:24:10.678Z,3.00
2023-07-03T18:26:58.695Z,2.40
2023-07-03T18:29:45.833Z,2.50
2023-07-03T18:32:34.448Z,2.60
2023-07-03T18:35:21.497Z,2.00
2023-07-03T18:38:08.607Z,2.10
2023-07-03T18:40:55.649Z,1.70
2023-07-03T18:43:43.552Z,1.53
2023-07-03T18:46:30.701Z,1.80
2023-07-03T18:49:17.850Z,1.83
2023-07-03T18:52:05.256Z,1.63
2023-07-03T18:54:53.182Z,1.63
2023-07-03T18:57:40.395Z,1.67
2023-07-03T19:00:27.677Z,1.67
2023-07-03T19:03:14.827Z,2.00
2023-07-03T19:06:02.075Z,2.00
2023-07-03T19:08:49.164Z,2.10
2023-07-03T19:11:38.642Z,2.53
2023-07-03T19:14:25.789Z,2.33
2023-07-03T19:17:12.892Z,2.43
2023-07-03T19:20:00.048Z,2.10
2023-07-03T19:22:47.535Z,1.77
2023-07-03T19:25:35.205Z,1.60
2023-07-03T19:28:23.323Z,1.57
2023-07-03T19:31:10.752Z,1.73
2023-07-03T19:34:00.978Z,1.70
2023-07-03T19:36:48.004Z,1.80
2023-07-03T19:39:35.126Z,1.53
2023-07-03T19:42:22.188Z,1.70
2023-07-03T19:45:09.688Z,1.67
2023-07-03T19:47:57.367Z,1.90
2023-07-03T19:50:44.520Z,1.77
2023-07-03T19:53:32.020Z,2.07
2023-07-03T19:56:21.045Z,1.87
2023-07-03T19:59:09.276Z,1.70
2023-07-03T20:01:56.333Z,1.77
2023-07-03T20:04:43.505Z,1.53
2023-07-03T20:07:30.581Z,1.43
2023-07-03T20:10:18.187Z,1.60
2023-07-03T20:13:05.351Z,1.70
2023-07-03T20:15:52.808Z,1.77
2023-07-03T20:18:40.064Z,1.90
2023-07-03T20:21:27.248Z,1.57
2023-07-03T20:24:14.525Z,2.10
2023-07-03T20:27:01.625Z,1.80
2023-07-03T20:29:52.672Z,1.90
2023-07-03T20:32:39.796Z,1.70
2023-07-03T20:35:27.428Z,1.90
2023-07-03T20:38:14.441Z,1.80
2023-07-03T20:41:05.038Z,1.73
2023-07-03T20:43:52.215Z,1.80
2023-07-03T20:46:39.297Z,1.60
2023-07-03T20:49:27.164Z,1.73
2023-07-03T20:52:17.319Z,2.07
2023-07-03T20:55:13.138Z,1.60
2023-07-03T20:58:00.277Z,1.70
2023-07-03T21:00:47.340Z,1.53
2023-07-03T21:03:34.875Z,1.80
2023-07-03T21:06:24.641Z,1.70
2023-07-03T21:09:11.654Z,1.50
2023-07-03T21:11:59.051Z,1.60
2023-07-03T21:14:46.094Z,2.00
2023-07-03T21:17:33.159Z,1.90
2023-07-03T21:20:20.219Z,1.90
2023-07-03T21:23:07.240Z,1.90
2023-07-03T21:25:56.011Z,1.80
2023-07-03T21:28:43.096Z,2.10
2023-07-03T21:31:33.406Z,1.80
2023-07-03T21:34:20.446Z,1.90
2023-07-03T21:37:08.820Z,1.90
2023-07-03T21:39:55.855Z,2.03
2023-07-03T21:42:43.206Z,2.10
2023-07-03T21:45:30.391Z,2.30
2023-07-03T21:48:17.384Z,2.30
2023-07-03T21:51:06.538Z,2.40
2023-07-03T21:53:54.997Z,2.03
2023-07-03T21:56:43.275Z,2.50
2023-07-03T21:59:30.455Z,2.73
2023-07-03T22:02:17.516Z,2.90
2023-07-03T22:05:04.821Z,2.83
2023-07-03T22:07:51.832Z,3.20
2023-07-03T22:10:38.876Z,2.67
2023-07-03T22:13:25.964Z,2.70
2023-07-03T22:16:17.538Z,2.97
2023-07-03T22:19:04.832Z,3.97
2023-07-03T22:21:52.050Z,3.97
2023-07-03T22:24:39.108Z,3.63
2023-07-03T22:27:26.123Z,3.90
2023-07-03T22:30:13.664Z,3.47
2023-07-03T22:33:00.834Z,3.70
2023-07-03T22:35:48.016Z,3.77
2023-07-03T22:38:35.010Z,4.00
2023-07-03T22:41:23.457Z,3.90
2023-07-03T22:44:10.724Z,3.60
2023-07-03T22:46:57.819Z,3.93
2023-07-03T22:49:44.915Z,3.30
2023-07-03T22:52:33.687Z,3.47
2023-07-03T22:55:20.946Z,3.77
2023-07-03T22:58:10.210Z,3.70
2023-07-03T23:00:57.466Z,3.87
2023-07-03T23:04:02.970Z,3.50
2023-07-03T23:07:08.737Z,3.50
2023-07-03T23:09:55.898Z,3.17
2023-07-03T23:12:42.981Z,3.20
2023-07-03T23:15:30.046Z,3.77
2023-07-03T23:18:17.097Z,3.33
2023-07-03T23:21:08.045Z,3.33
2023-07-03T23:23:56.627Z,3.43
2023-07-03T23:26:43.700Z,2.80
2023-07-03T23:29:30.921Z,2.93
2023-07-03T23:32:19.938Z,3.03
2023-07-03T23:35:07.484Z,3.30
2023-07-03T23:37:54.541Z,3.50
2023-07-03T23:40:41.706Z,3.77
2023-07-03T23:43:28.809Z,3.30
2023-07-03T23:46:17.138Z,3.40
2023-07-03T23:49:04.756Z,3.70
2023-07-03T23:51:55.115Z,3.53
2023-07-03T23:54:42.181Z,3.67
2023-07-03T23:57:29.239Z,3.27
